Time;durP1;ratioP1;P1;durP2;ratioP2;P2;SDS_P1;SDS_P2;PMS_P1;PMS_P2;Temp;Humidity;BMP_temperature;BMP_pressure;BME280_temperature;BME280_humidity;BME280_pressure;Samples;Min_cycle;Max_cycle;Signal;HPM_P1;HPM_P2
2021/09/15 00:02:24;;;;;;;;;;;18.70;70.90;;;;;;5092540;28;20123;-78
2021/09/15 00:04:49;;;;;;;;;;;18.70;71.10;;;;;;5110779;28;19904;-79
2021/09/15 00:07:15;;;;;;;;;;;18.60;71.20;;;;;;5110896;28;19904;-77
2021/09/15 00:09:40;;;;;;;;;;;18.60;71.20;;;;;;5110710;28;19908;-80
2021/09/15 00:12:06;;;;;;;;;;;18.60;71.10;;;;;;5109632;28;19910;-78
2021/09/15 00:14:31;;;;;;;;;;;18.70;71.20;;;;;;5092708;28;20397;-78
2021/09/15 00:16:57;;;;;;;;;;;18.70;71.30;;;;;;5092099;28;20277;-77
2021/09/15 00:19:23;;;;;;;;;;;18.60;71.30;;;;;;5110487;28;20392;-79
2021/09/15 00:21:48;;;;;;;;;;;18.60;71.50;;;;;;5092271;28;20282;-79
2021/09/15 00:24:14;;;;;;;;;;;18.70;71.40;;;;;;5092276;28;19931;-81
2021/09/15 00:26:39;;;;;;;;;;;18.70;71.30;;;;;;5110541;28;19911;-80
2021/09/15 00:29:05;;;;;;;;;;;18.70;71.20;;;;;;5092582;28;19921;-79
2021/09/15 00:31:30;;;;;;;;;;;18.70;71.20;;;;;;5075163;28;20002;-79
2021/09/15 00:33:56;;;;;;;;;;;18.70;71.30;;;;;;5110308;28;20329;-78
2021/09/15 00:36:21;;;;;;;;;;;18.70;71.30;;;;;;5091697;28;19998;-79
2021/09/15 00:38:47;;;;;;;;;;;18.70;71.40;;;;;;5091835;28;19907;-78
2021/09/15 00:41:13;;;;;;;;;;;18.80;71.40;;;;;;5091924;28;19912;-78
2021/09/15 00:43:57;;;;;;;;;;;18.80;71.30;;;;;;5091767;28;19926;-80
2021/09/15 00:46:23;;;;;;;;;;;18.80;71.20;;;;;;5091616;28;19908;-80
2021/09/15 00:48:48;;;;;;;;;;;18.80;71.20;;;;;;5110239;28;20350;-77
2021/09/15 00:51:14;;;;;;;;;;;18.80;71.20;;;;;;5074878;28;19912;-79
2021/09/15 00:53:40;;;;;;;;;;;18.80;71.20;;;;;;5074699;28;19912;-80
2021/09/15 00:56:05;;;;;;;;;;;18.80;71.20;;;;;;5091551;28;19916;-79
2021/09/15 00:58:31;;;;;;;;;;;18.80;71.30;;;;;;5074600;28;19963;-78
2021/09/15 01:00:56;;;;;;;;;;;18.70;71.30;;;;;;5109834;28;19918;-80
2021/09/15 01:03:22;;;;;;;;;;;18.70;71.50;;;;;;5091519;28;19915;-79
2021/09/15 01:05:47;;;;;;;;;;;18.70;71.50;;;;;;5091242;28;20031;-79
2021/09/15 01:08:13;;;;;;;;;;;18.60;71.60;;;;;;5091260;28;19911;-77
2021/09/15 01:10:38;;;;;;;;;;;18.60;71.70;;;;;;5109689;28;20394;-77
2021/09/15 01:13:04;;;;;;;;;;;18.60;71.80;;;;;;5074327;28;20388;-80
2021/09/15 01:15:30;;;;;;;;;;;18.60;71.70;;;;;;5109749;28;19999;-81
2021/09/15 01:17:55;;;;;;;;;;;18.70;71.70;;;;;;5091053;28;19912;-77
2021/09/15 01:20:21;;;;;;;;;;;18.70;71.70;;;;;;5109305;28;20423;-77
2021/09/15 01:22:46;;;;;;;;;;;18.70;71.70;;;;;;5074088;28;20317;-79
2021/09/15 01:25:12;;;;;;;;;;;18.70;71.60;;;;;;5109160;28;20281;-79
2021/09/15 01:27:37;;;;;;;;;;;18.70;71.70;;;;;;5090921;28;20006;-80
2021/09/15 01:30:04;;;;;;;;;;;18.70;71.70;;;;;;5109204;28;20002;-79
2021/09/15 01:32:29;;;;;;;;;;;18.70;71.70;;;;;;5109163;28;19966;-79
2021/09/15 01:34:55;;;;;;;;;;;18.70;71.70;;;;;;5108875;28;19947;-79
2021/09/15 01:37:21;;;;;;;;;;;18.60;71.80;;;;;;5073865;28;19927;-77
2021/09/15 01:39:47;;;;;;;;;;;18.60;71.80;;;;;;5090909;28;20273;-79
2021/09/15 01:42:13;;;;;;;;;;;18.70;71.90;;;;;;5109046;28;19914;-79
2021/09/15 01:44:40;;;;;;;;;;;18.70;71.80;;;;;;5090767;28;19911;-78
2021/09/15 01:47:07;;;;;;;;;;;18.70;71.80;;;;;;5090978;28;19904;-77
2021/09/15 01:49:33;;;;;;;;;;;18.70;71.80;;;;;;5108863;28;19903;-77
2021/09/15 01:51:59;;;;;;;;;;;18.60;71.80;;;;;;5108893;28;19982;-79
2021/09/15 01:54:25;;;;;;;;;;;18.70;71.80;;;;;;5090322;28;20004;-79
2021/09/15 01:56:51;;;;;;;;;;;18.70;71.80;;;;;;5108771;28;20410;-77
2021/09/15 01:59:17;;;;;;;;;;;18.70;71.70;;;;;;5108718;28;19907;-79
2021/09/15 02:01:42;;;;;;;;;;;18.70;71.70;;;;;;5090659;28;20370;-79
2021/09/15 02:04:08;;;;;;;;;;;18.70;71.80;;;;;;5108694;28;19911;-79
2021/09/15 02:06:34;;;;;;;;;;;18.60;71.80;;;;;;5108728;28;19948;-79
2021/09/15 02:09:00;;;;;;;;;;;18.60;71.90;;;;;;5108621;28;19907;-78
2021/09/15 02:11:25;;;;;;;;;;;18.60;71.90;;;;;;5108627;28;19930;-77
2021/09/15 02:13:51;;;;;;;;;;;18.60;72.00;;;;;;5090239;28;19947;-78
2021/09/15 02:16:16;;;;;;;;;;;18.60;72.00;;;;;;5108488;28;20374;-79
2021/09/15 02:18:42;;;;;;;;;;;18.50;71.90;;;;;;5108465;28;19962;-79
2021/09/15 02:21:08;;;;;;;;;;;18.50;71.90;;;;;;5108469;28;19908;-79
2021/09/15 02:23:33;;;;;;;;;;;18.50;71.90;;;;;;5090273;28;20001;-78
2021/09/15 02:25:59;;;;;;;;;;;18.50;71.90;;;;;;5090067;28;19908;-78
2021/09/15 02:28:24;;;;;;;;;;;18.50;72.00;;;;;;5090028;28;19912;-79
2021/09/15 02:30:50;;;;;;;;;;;18.50;72.00;;;;;;5108270;28;19904;-79
2021/09/15 02:33:15;;;;;;;;;;;18.50;72.00;;;;;;5073373;28;19912;-77
2021/09/15 02:35:41;;;;;;;;;;;18.50;72.00;;;;;;5091781;28;19918;-78
2021/09/15 02:38:07;;;;;;;;;;;18.40;72.00;;;;;;5112538;28;19908;-78
2021/09/15 02:40:32;;;;;;;;;;;18.40;72.10;;;;;;5112493;28;20335;-77
2021/09/15 02:42:58;;;;;;;;;;;18.40;72.10;;;;;;5077277;28;19915;-79
2021/09/15 02:45:23;;;;;;;;;;;18.40;72.20;;;;;;5094017;28;19904;-78
2021/09/15 02:47:49;;;;;;;;;;;18.40;72.30;;;;;;5094211;28;19911;-79
2021/09/15 02:50:15;;;;;;;;;;;18.30;72.30;;;;;;5094208;28;19913;-79
2021/09/15 02:52:40;;;;;;;;;;;18.40;72.30;;;;;;5112161;28;19912;-79
2021/09/15 02:55:06;;;;;;;;;;;18.30;72.30;;;;;;5111969;28;19915;-78
2021/09/15 02:57:31;;;;;;;;;;;18.30;72.50;;;;;;5093780;28;19916;-79
2021/09/15 02:59:57;;;;;;;;;;;18.20;72.60;;;;;;5093858;28;19961;-78
2021/09/15 03:02:23;;;;;;;;;;;18.20;72.70;;;;;;5076863;28;20278;-77
2021/09/15 03:04:48;;;;;;;;;;;18.20;72.60;;;;;;5093690;28;20387;-78
2021/09/15 03:07:14;;;;;;;;;;;18.30;72.60;;;;;;5093691;28;19914;-80
2021/09/15 03:09:39;;;;;;;;;;;18.30;72.50;;;;;;5111959;28;19908;-77
2021/09/15 03:12:05;;;;;;;;;;;18.30;72.50;;;;;;5093659;28;19919;-78
2021/09/15 03:14:30;;;;;;;;;;;18.30;72.50;;;;;;5111812;28;19904;-79
2021/09/15 03:16:56;;;;;;;;;;;18.30;72.50;;;;;;5111811;28;20358;-77
2021/09/15 03:19:22;;;;;;;;;;;18.20;72.50;;;;;;5093648;28;19960;-79
2021/09/15 03:21:47;;;;;;;;;;;18.20;72.60;;;;;;5111664;28;19910;-79
2021/09/15 03:24:13;;;;;;;;;;;18.10;72.70;;;;;;5093396;28;19933;-78
2021/09/15 03:26:39;;;;;;;;;;;18.10;72.70;;;;;;5093286;28;19911;-78
2021/09/15 03:29:04;;;;;;;;;;;18.10;72.70;;;;;;5111650;28;20389;-77
2021/09/15 03:31:30;;;;;;;;;;;18.10;72.70;;;;;;5076381;28;19999;-78
2021/09/15 03:33:55;;;;;;;;;;;18.10;72.60;;;;;;5111656;28;19911;-80
2021/09/15 03:36:21;;;;;;;;;;;18.20;72.70;;;;;;5093038;28;19911;-78
2021/09/15 03:38:46;;;;;;;;;;;18.20;72.70;;;;;;5111394;28;19915;-78
2021/09/15 03:41:12;;;;;;;;;;;18.20;72.70;;;;;;5092977;28;19908;-77
2021/09/15 03:43:38;;;;;;;;;;;18.20;72.70;;;;;;5111277;28;19987;-78
2021/09/15 03:46:03;;;;;;;;;;;18.20;72.70;;;;;;5111219;28;19904;-78
2021/09/15 03:48:29;;;;;;;;;;;18.30;72.70;;;;;;5093109;28;19933;-79
2021/09/15 03:50:54;;;;;;;;;;;18.30;72.70;;;;;;5111012;28;19911;-77
2021/09/15 03:53:20;;;;;;;;;;;18.40;72.80;;;;;;5110900;28;19939;-79
2021/09/15 03:55:46;;;;;;;;;;;18.40;72.60;;;;;;5092243;28;19923;-80
2021/09/15 03:58:11;;;;;;;;;;;18.40;72.70;;;;;;5110654;28;20011;-78
2021/09/15 04:00:37;;;;;;;;;;;18.40;72.70;;;;;;5075610;28;19911;-80
2021/09/15 04:03:03;;;;;;;;;;;18.40;72.60;;;;;;5110990;28;19904;-77
2021/09/15 04:05:28;;;;;;;;;;;18.40;72.60;;;;;;5110833;28;19911;-79
2021/09/15 04:07:54;;;;;;;;;;;18.40;72.60;;;;;;5092815;28;19926;-78
2021/09/15 04:10:19;;;;;;;;;;;18.40;72.60;;;;;;5092756;28;19918;-80
2021/09/15 04:12:45;;;;;;;;;;;18.40;72.70;;;;;;5110870;28;20365;-78
2021/09/15 04:15:10;;;;;;;;;;;18.30;72.70;;;;;;5092345;28;19999;-78
2021/09/15 04:17:36;;;;;;;;;;;18.30;72.70;;;;;;5075569;28;19912;-81
2021/09/15 04:20:02;;;;;;;;;;;18.30;72.70;;;;;;5092335;28;19908;-79
2021/09/15 04:22:28;;;;;;;;;;;18.20;72.80;;;;;;5075437;28;19915;-78
2021/09/15 04:33:19;;;;;;;;;;;18.00;73.30;;;;;;5110575;28;19915;-80
2021/09/15 04:35:45;;;;;;;;;;;18.00;73.30;;;;;;5110123;28;19911;-79
2021/09/15 04:38:11;;;;;;;;;;;18.00;73.30;;;;;;5110606;28;20000;-77
2021/09/15 04:40:36;;;;;;;;;;;18.10;73.30;;;;;;5110203;28;20284;-78
2021/09/15 04:43:02;;;;;;;;;;;18.10;73.20;;;;;;5091777;28;20344;-79
2021/09/15 04:45:27;;;;;;;;;;;18.10;73.10;;;;;;5110051;28;19958;-78
2021/09/15 04:47:53;;;;;;;;;;;18.10;73.00;;;;;;5091717;28;19912;-78
2021/09/15 04:50:19;;;;;;;;;;;18.10;73.10;;;;;;5110335;28;19964;-78
2021/09/15 04:52:44;;;;;;;;;;;18.10;73.00;;;;;;5110025;28;19903;-78
2021/09/15 04:55:10;;;;;;;;;;;18.10;73.00;;;;;;5074448;28;19969;-78
2021/09/15 04:57:36;;;;;;;;;;;18.10;73.10;;;;;;5109536;28;20290;-78
2021/09/15 05:00:02;;;;;;;;;;;18.10;73.00;;;;;;5109547;28;20006;-78
2021/09/15 05:02:27;;;;;;;;;;;18.10;73.10;;;;;;5109806;28;20320;-78
2021/09/15 05:04:53;;;;;;;;;;;18.10;73.10;;;;;;5091567;28;19912;-78
2021/09/15 05:07:18;;;;;;;;;;;18.10;73.10;;;;;;5091429;28;20358;-79
2021/09/15 05:09:44;;;;;;;;;;;18.10;73.10;;;;;;5109614;28;20362;-79
2021/09/15 05:12:09;;;;;;;;;;;18.10;73.10;;;;;;5109594;28;20388;-77
2021/09/15 05:14:35;;;;;;;;;;;18.10;73.10;;;;;;5073941;28;19915;-79
2021/09/15 05:17:00;;;;;;;;;;;18.10;73.20;;;;;;5090876;28;19908;-78
2021/09/15 05:19:26;;;;;;;;;;;18.10;73.30;;;;;;5109198;28;20002;-79
2021/09/15 05:21:51;;;;;;;;;;;18.10;73.30;;;;;;5090978;28;20381;-79
2021/09/15 05:24:17;;;;;;;;;;;18.10;73.40;;;;;;5091019;28;20311;-78
2021/09/15 05:26:43;;;;;;;;;;;18.10;73.30;;;;;;5109173;28;19964;-78
2021/09/15 05:29:08;;;;;;;;;;;18.10;73.30;;;;;;5109140;28;19911;-79
2021/09/15 05:31:34;;;;;;;;;;;18.00;73.30;;;;;;5090957;28;19931;-79
2021/09/15 05:33:59;;;;;;;;;;;18.00;73.30;;;;;;5108809;28;19931;-79
2021/09/15 05:36:25;;;;;;;;;;;18.00;73.40;;;;;;5109470;28;19964;-79
2021/09/15 05:38:51;;;;;;;;;;;18.00;73.40;;;;;;5109059;28;19914;-79
2021/09/15 05:41:16;;;;;;;;;;;18.10;73.40;;;;;;5109021;28;19922;-78
2021/09/15 05:43:42;;;;;;;;;;;18.10;73.50;;;;;;5108946;28;19998;-79
2021/09/15 05:46:07;;;;;;;;;;;18.10;73.50;;;;;;5090509;28;19943;-78
2021/09/15 05:48:33;;;;;;;;;;;18.10;73.40;;;;;;5108807;28;20374;-79
2021/09/15 05:50:58;;;;;;;;;;;18.10;73.50;;;;;;5108923;28;20010;-79
2021/09/15 05:53:24;;;;;;;;;;;18.10;73.60;;;;;;5090840;28;19928;-80
2021/09/15 05:55:50;;;;;;;;;;;18.10;73.60;;;;;;5090431;28;20369;-78
2021/09/15 05:58:17;;;;;;;;;;;18.10;73.60;;;;;;5073914;28;20264;-79
2021/09/15 06:00:43;;;;;;;;;;;18.20;73.50;;;;;;5108720;28;19925;-80
2021/09/15 06:03:09;;;;;;;;;;;18.20;73.50;;;;;;5108791;28;19912;-79
2021/09/15 06:05:35;;;;;;;;;;;18.20;73.50;;;;;;5090583;28;20353;-77
2021/09/15 06:08:00;;;;;;;;;;;18.20;73.40;;;;;;5090397;28;19908;-77
2021/09/15 06:10:26;;;;;;;;;;;18.30;73.50;;;;;;5108080;28;20325;-79
2021/09/15 06:12:52;;;;;;;;;;;18.30;73.50;;;;;;5108504;28;19907;-78
2021/09/15 06:15:17;;;;;;;;;;;18.30;73.50;;;;;;5108345;28;19908;-80
2021/09/15 06:17:43;;;;;;;;;;;18.30;73.50;;;;;;5108204;28;19995;-78
2021/09/15 06:20:09;;;;;;;;;;;18.30;73.60;;;;;;5090156;28;20134;-78
2021/09/15 06:22:34;;;;;;;;;;;18.40;73.60;;;;;;5108248;28;19904;-78
2021/09/15 06:25:00;;;;;;;;;;;18.40;73.60;;;;;;5089859;28;19950;-79
2021/09/15 06:27:25;;;;;;;;;;;18.40;73.60;;;;;;5108367;28;19919;-78
2021/09/15 06:29:51;;;;;;;;;;;18.50;73.60;;;;;;5090068;28;19909;-79
2021/09/15 06:32:20;;;;;;;;;;;18.50;73.70;;;;;;5089940;28;19912;-80
2021/09/15 06:34:46;;;;;;;;;;;18.50;73.70;;;;;;5089920;28;19915;-79
2021/09/15 06:37:13;;;;;;;;;;;18.50;73.70;;;;;;5089610;28;19908;-77
2021/09/15 06:39:39;;;;;;;;;;;18.50;73.70;;;;;;5089868;28;19903;-78
2021/09/15 06:42:04;;;;;;;;;;;18.60;73.90;;;;;;5108239;28;20333;-79
2021/09/15 06:44:30;;;;;;;;;;;18.60;74.00;;;;;;5089717;28;20316;-79
2021/09/15 06:46:55;;;;;;;;;;;18.60;73.90;;;;;;5107879;28;19908;-79
2021/09/15 06:49:21;;;;;;;;;;;18.70;74.00;;;;;;5089873;28;20381;-79
2021/09/15 06:51:46;;;;;;;;;;;18.70;74.10;;;;;;5089560;28;19908;-79
2021/09/15 06:54:12;;;;;;;;;;;18.70;74.10;;;;;;5071823;28;19919;-79
2021/09/15 06:56:37;;;;;;;;;;;18.70;74.20;;;;;;5089337;28;19919;-79
2021/09/15 06:59:03;;;;;;;;;;;18.70;74.20;;;;;;5089343;28;19912;-78
2021/09/15 07:01:28;;;;;;;;;;;18.70;74.40;;;;;;5089363;28;20430;-76
2021/09/15 07:03:54;;;;;;;;;;;18.70;74.30;;;;;;5089319;28;20266;-78
2021/09/15 07:06:20;;;;;;;;;;;18.80;74.50;;;;;;5107734;28;19956;-77
2021/09/15 07:08:45;;;;;;;;;;;18.80;74.50;;;;;;5107613;28;19908;-75
2021/09/15 07:11:11;;;;;;;;;;;18.80;74.90;;;;;;5108009;28;20297;-75
2021/09/15 07:13:36;;;;;;;;;;;18.80;75.20;;;;;;5107677;28;19908;-78
2021/09/15 07:16:02;;;;;;;;;;;18.80;75.00;;;;;;5089526;28;19920;-76
2021/09/15 07:18:28;;;;;;;;;;;18.80;75.00;;;;;;5089373;28;19912;-78
2021/09/15 07:20:54;;;;;;;;;;;18.80;75.10;;;;;;5107558;28;19912;-77
2021/09/15 07:23:19;;;;;;;;;;;18.80;75.10;;;;;;5092859;28;20053;-79
2021/09/15 07:25:45;;;;;;;;;;;18.80;75.10;;;;;;5092901;28;20034;-80
2021/09/15 07:28:10;;;;;;;;;;;18.80;75.20;;;;;;5111211;28;20281;-79
2021/09/15 07:30:36;;;;;;;;;;;18.80;75.30;;;;;;5110834;28;19907;-80
2021/09/15 07:33:01;;;;;;;;;;;18.90;75.50;;;;;;5092883;28;19912;-81
2021/09/15 07:35:27;;;;;;;;;;;18.80;75.60;;;;;;5110983;28;19915;-79
2021/09/15 07:37:52;;;;;;;;;;;18.80;75.90;;;;;;5110956;28;20003;-79
2021/09/15 07:40:18;;;;;;;;;;;18.80;75.80;;;;;;5092485;28;19908;-79
2021/09/15 07:42:45;;;;;;;;;;;18.90;75.90;;;;;;5111452;28;20439;-79
2021/09/15 07:45:12;;;;;;;;;;;18.90;75.90;;;;;;5110487;28;20100;-77
2021/09/15 07:47:38;;;;;;;;;;;18.90;76.00;;;;;;5111085;28;19908;-79
2021/09/15 07:50:04;;;;;;;;;;;19.00;76.10;;;;;;5092284;28;20014;-80
2021/09/15 07:52:29;;;;;;;;;;;19.10;76.10;;;;;;5110305;28;20002;-82
2021/09/15 07:54:55;;;;;;;;;;;19.20;76.20;;;;;;5088379;28;20363;-80
2021/09/15 07:57:20;;;;;;;;;;;19.20;76.20;;;;;;5090110;28;19916;-78
2021/09/15 07:59:46;;;;;;;;;;;19.30;76.10;;;;;;5088974;28;19994;-77
2021/09/15 08:02:12;;;;;;;;;;;19.30;76.10;;;;;;5090502;28;19954;-79
2021/09/15 08:04:37;;;;;;;;;;;19.30;76.10;;;;;;5085886;28;19920;-77
2021/09/15 08:07:03;;;;;;;;;;;19.30;76.20;;;;;;5080860;28;19904;-77
2021/09/15 08:09:29;;;;;;;;;;;19.40;76.20;;;;;;5076853;28;19912;-80
2021/09/15 08:11:54;;;;;;;;;;;19.40;76.30;;;;;;5079770;28;20351;-79
2021/09/15 08:14:20;;;;;;;;;;;19.50;76.60;;;;;;5076297;28;20287;-79
2021/09/15 08:16:45;;;;;;;;;;;19.50;76.50;;;;;;5079583;28;20011;-79
2021/09/15 08:19:11;;;;;;;;;;;19.60;76.60;;;;;;5080730;28;19908;-79
2021/09/15 08:21:37;;;;;;;;;;;19.60;76.50;;;;;;5078813;28;20286;-77
2021/09/15 08:24:02;;;;;;;;;;;19.60;76.60;;;;;;5078059;28;19908;-76
2021/09/15 08:26:28;;;;;;;;;;;19.60;76.80;;;;;;5080343;28;19904;-78
2021/09/15 08:28:53;;;;;;;;;;;19.60;76.90;;;;;;5078400;28;19921;-80
2021/09/15 08:31:19;;;;;;;;;;;19.60;76.70;;;;;;5079009;28;19908;-76
2021/09/15 08:33:45;;;;;;;;;;;19.60;76.90;;;;;;5080174;28;19905;-79
2021/09/15 08:36:10;;;;;;;;;;;19.60;77.10;;;;;;5080045;28;20014;-77
2021/09/15 08:38:36;;;;;;;;;;;19.60;77.20;;;;;;5075877;28;20367;-77
2021/09/15 08:41:01;;;;;;;;;;;19.50;77.30;;;;;;5080109;28;19961;-78
2021/09/15 08:43:27;;;;;;;;;;;19.50;77.40;;;;;;5078194;28;19918;-79
2021/09/15 08:45:55;;;;;;;;;;;19.40;77.60;;;;;;5076805;28;19970;-77
2021/09/15 08:48:21;;;;;;;;;;;19.40;77.70;;;;;;5076975;28;19912;-77
2021/09/15 08:50:50;;;;;;;;;;;19.40;77.80;;;;;;5070820;28;19962;-78
2021/09/15 08:53:17;;;;;;;;;;;19.40;77.90;;;;;;5085582;28;20414;-78
2021/09/15 08:55:46;;;;;;;;;;;19.40;77.90;;;;;;5105755;28;20319;-78
2021/09/15 08:58:12;;;;;;;;;;;19.50;78.00;;;;;;5092878;28;19919;-79
2021/09/15 09:00:38;;;;;;;;;;;19.50;77.90;;;;;;5092776;28;19911;-79
2021/09/15 09:03:04;;;;;;;;;;;19.60;77.80;;;;;;5111131;28;19932;-78
2021/09/15 09:05:29;;;;;;;;;;;19.60;77.90;;;;;;5092030;28;20234;-77
2021/09/15 09:07:55;;;;;;;;;;;19.60;78.00;;;;;;5092747;28;20014;-78
2021/09/15 09:10:20;;;;;;;;;;;19.60;77.90;;;;;;5092456;28;19908;-78
2021/09/15 09:12:46;;;;;;;;;;;19.60;77.90;;;;;;5092272;28;19951;-78
2021/09/15 09:15:18;;;;;;;;;;;19.70;78.00;;;;;;5110749;28;19956;-78
2021/09/15 09:17:45;;;;;;;;;;;19.80;78.20;;;;;;5110889;28;19935;-78
2021/09/15 09:20:14;;;;;;;;;;;19.80;78.10;;;;;;5105841;28;19915;-77
2021/09/15 09:22:58;;;;;;;;;;;19.80;78.20;;;;;;5088995;28;19995;-78
2021/09/15 09:25:24;;;;;;;;;;;19.80;78.10;;;;;;5088269;28;19904;-78
2021/09/15 09:27:50;;;;;;;;;;;19.80;78.30;;;;;;5092074;28;19961;-77
2021/09/15 09:30:29;;;;;;;;;;;19.80;78.60;;;;;;5086782;28;20362;-78
2021/09/15 09:32:55;;;;;;;;;;;19.80;78.70;;;;;;5091891;28;19904;-76
2021/09/15 09:35:20;;;;;;;;;;;19.70;78.60;;;;;;5105389;28;19917;-78
2021/09/15 09:37:46;;;;;;;;;;;19.70;78.80;;;;;;5091965;28;19915;-77
2021/09/15 09:40:18;;;;;;;;;;;19.70;79.00;;;;;;5107484;28;20377;-77
2021/09/15 09:42:43;;;;;;;;;;;19.70;79.20;;;;;;5107444;28;19987;-78
2021/09/15 09:45:15;;;;;;;;;;;19.60;79.40;;;;;;5109784;28;20006;-78
2021/09/15 09:47:41;;;;;;;;;;;19.60;79.50;;;;;;5110014;28;19957;-76
2021/09/15 09:50:07;;;;;;;;;;;19.60;79.50;;;;;;5109776;28;19903;-77
2021/09/15 09:52:50;;;;;;;;;;;19.60;79.50;;;;;;5110023;28;20225;-78
2021/09/15 09:55:21;;;;;;;;;;;19.60;79.60;;;;;;5087803;28;19919;-77
2021/09/15 09:57:51;;;;;;;;;;;19.60;79.70;;;;;;5075415;28;19960;-77
2021/09/15 10:00:18;;;;;;;;;;;19.70;79.90;;;;;;5076943;28;19904;-77
2021/09/15 10:02:44;;;;;;;;;;;19.80;80.20;;;;;;5076926;28;19982;-79
2021/09/15 10:05:10;;;;;;;;;;;19.90;80.20;;;;;;5085612;28;19904;-79
2021/09/15 10:07:37;;;;;;;;;;;20.10;80.30;;;;;;5082734;28;20316;-77
2021/09/15 10:10:04;;;;;;;;;;;20.20;80.20;;;;;;5083078;28;20274;-79
2021/09/15 10:12:30;;;;;;;;;;;20.30;80.00;;;;;;5081903;28;19915;-81
2021/09/15 10:14:58;;;;;;;;;;;20.50;80.10;;;;;;5081198;28;19979;-76
2021/09/15 10:17:26;;;;;;;;;;;20.50;80.00;;;;;;5074165;28;20402;-79
2021/09/15 10:19:53;;;;;;;;;;;20.60;80.00;;;;;;5083192;28;19958;-77
2021/09/15 10:22:32;;;;;;;;;;;20.70;80.10;;;;;;5077646;28;19904;-78
2021/09/15 10:24:58;;;;;;;;;;;20.80;80.00;;;;;;5080064;28;19920;-77
2021/09/15 10:27:28;;;;;;;;;;;20.80;79.90;;;;;;5077680;28;19908;-76
2021/09/15 10:30:19;;;;;;;;;;;20.70;79.70;;;;;;5081265;28;19904;-78
2021/09/15 10:32:46;;;;;;;;;;;20.80;80.00;;;;;;5077728;28;19904;-82
2021/09/15 10:35:12;;;;;;;;;;;20.80;80.00;;;;;;5066091;28;19908;-77
2021/09/15 10:37:37;;;;;;;;;;;20.90;80.20;;;;;;5080210;28;19915;-77
2021/09/15 10:40:11;;;;;;;;;;;21.00;80.10;;;;;;5077994;28;19911;-79
2021/09/15 10:45:08;;;;;;;;;;;21.10;80.00;;;;;;5070198;28;19912;-79
2021/09/15 10:47:36;;;;;;;;;;;21.20;80.10;;;;;;5078880;28;19904;-81
2021/09/15 10:50:02;;;;;;;;;;;21.20;80.00;;;;;;5079256;28;20503;-80
2021/09/15 10:52:28;;;;;;;;;;;21.30;80.10;;;;;;5083345;28;19932;-79
2021/09/15 10:54:55;;;;;;;;;;;21.30;80.10;;;;;;5091348;28;19911;-79
2021/09/15 10:57:27;;;;;;;;;;;21.30;80.10;;;;;;5111558;28;19972;-79
2021/09/15 10:59:54;;;;;;;;;;;21.50;80.20;;;;;;5097509;28;19927;-81
2021/09/15 11:02:28;;;;;;;;;;;21.70;80.00;;;;;;5094533;28;19905;-80
2021/09/15 11:04:54;;;;;;;;;;;21.70;79.80;;;;;;5113160;28;19910;-79
2021/09/15 11:07:37;;;;;;;;;;;21.70;79.60;;;;;;5113701;28;19914;-83
2021/09/15 11:10:03;;;;;;;;;;;21.70;79.60;;;;;;5094561;28;19910;-80
2021/09/15 11:12:48;;;;;;;;;;;21.70;79.50;;;;;;5112824;28;20343;-82
2021/09/15 11:15:27;;;;;;;;;;;21.70;79.40;;;;;;5093556;28;19908;-81
2021/09/15 11:17:52;;;;;;;;;;;21.70;79.40;;;;;;5094254;28;19952;-81
2021/09/15 11:20:19;;;;;;;;;;;21.70;79.50;;;;;;5094400;28;19993;-81
2021/09/15 11:22:46;;;;;;;;;;;21.70;79.60;;;;;;5112586;28;19908;-82
2021/09/15 11:25:24;;;;;;;;;;;21.80;79.40;;;;;;5094694;28;19904;-80
2021/09/15 11:28:13;;;;;;;;;;;21.80;79.40;;;;;;5111936;28;19907;-79
2021/09/15 11:30:40;;;;;;;;;;;21.70;79.20;;;;;;5092792;28;19953;-78
2021/09/15 11:33:05;;;;;;;;;;;21.70;79.40;;;;;;5108024;28;19904;-81
2021/09/15 11:35:35;;;;;;;;;;;21.70;79.60;;;;;;5111198;28;19925;-82
2021/09/15 11:38:01;;;;;;;;;;;21.70;79.60;;;;;;5095020;28;19924;-79
2021/09/15 11:40:28;;;;;;;;;;;21.80;79.40;;;;;;5096450;28;20277;-80
2021/09/15 11:42:54;;;;;;;;;;;21.80;79.30;;;;;;5114186;28;19921;-81
2021/09/15 11:45:21;;;;;;;;;;;21.80;79.20;;;;;;5095596;28;19908;-79
2021/09/15 11:47:48;;;;;;;;;;;21.80;79.20;;;;;;5095523;28;19903;-78
2021/09/15 11:50:17;;;;;;;;;;;21.70;79.20;;;;;;5095141;28;19910;-81
2021/09/15 11:52:44;;;;;;;;;;;21.70;79.40;;;;;;5113407;28;19907;-79
2021/09/15 11:55:12;;;;;;;;;;;21.70;79.40;;;;;;5112363;28;19926;-78
2021/09/15 11:57:44;;;;;;;;;;;21.70;79.40;;;;;;5112205;28;19912;-79
2021/09/15 12:00:10;;;;;;;;;;;21.70;79.50;;;;;;5113515;28;19914;-81
2021/09/15 12:02:37;;;;;;;;;;;21.80;79.70;;;;;;5077606;28;19927;-80
2021/09/15 12:05:03;;;;;;;;;;;21.90;79.80;;;;;;5112942;28;19911;-83
2021/09/15 12:07:29;;;;;;;;;;;22.10;80.00;;;;;;5093700;28;19911;-77
2021/09/15 12:09:55;;;;;;;;;;;22.40;79.70;;;;;;5111408;28;20004;-76
2021/09/15 12:12:21;;;;;;;;;;;22.50;79.20;;;;;;5093897;28;19904;-74
2021/09/15 12:14:48;;;;;;;;;;;22.70;78.70;;;;;;5111812;28;19904;-76
2021/09/15 12:17:13;;;;;;;;;;;22.70;78.50;;;;;;5112022;28;19912;-77
2021/09/15 12:19:46;;;;;;;;;;;22.80;78.60;;;;;;5112190;28;19988;-76
2021/09/15 12:22:17;;;;;;;;;;;22.90;78.50;;;;;;5112310;28;19962;-76
2021/09/15 12:24:57;;;;;;;;;;;22.90;78.30;;;;;;5112213;28;19905;-75
2021/09/15 12:27:23;;;;;;;;;;;22.80;78.10;;;;;;5111710;28;19909;-76
2021/09/15 12:30:21;;;;;;;;;;;22.80;78.30;;;;;;5112027;28;19908;-77
2021/09/15 12:32:54;;;;;;;;;;;22.90;78.50;;;;;;5092725;28;19914;-79
2021/09/15 12:35:20;;;;;;;;;;;23.00;78.30;;;;;;5093401;28;19908;-76
2021/09/15 12:37:46;;;;;;;;;;;23.10;78.10;;;;;;5110317;28;19908;-77
2021/09/15 12:40:20;;;;;;;;;;;23.00;78.00;;;;;;5111203;28;19914;-79
2021/09/15 12:43:01;;;;;;;;;;;22.80;78.10;;;;;;5106819;28;19904;-77
2021/09/15 12:45:27;;;;;;;;;;;22.70;78.30;;;;;;5111776;28;19904;-77
2021/09/15 12:47:52;;;;;;;;;;;22.70;78.40;;;;;;5092917;28;19998;-78
2021/09/15 12:50:28;;;;;;;;;;;22.70;78.50;;;;;;5076002;28;19943;-75
2021/09/15 12:53:08;;;;;;;;;;;22.60;78.50;;;;;;5111017;28;19904;-76
2021/09/15 12:55:48;;;;;;;;;;;22.60;78.50;;;;;;5110492;28;20302;-75
2021/09/15 12:58:31;;;;;;;;;;;22.60;78.80;;;;;;5110672;28;19979;-74
2021/09/15 13:00:56;;;;;;;;;;;22.70;78.90;;;;;;5110165;28;20563;-78
2021/09/15 13:03:23;;;;;;;;;;;22.90;78.90;;;;;;5110878;28;19904;-78
2021/09/15 13:05:49;;;;;;;;;;;23.10;78.80;;;;;;5110914;28;20434;-77
2021/09/15 13:08:22;;;;;;;;;;;23.30;78.70;;;;;;5110681;28;19999;-77
2021/09/15 13:10:48;;;;;;;;;;;23.60;78.40;;;;;;5093267;28;19911;-79
2021/09/15 13:13:15;;;;;;;;;;;23.80;77.90;;;;;;5111561;28;19904;-78
2021/09/15 13:15:40;;;;;;;;;;;23.80;77.60;;;;;;5111301;28;19904;-78
2021/09/15 13:18:06;;;;;;;;;;;23.80;77.50;;;;;;5076198;28;19911;-78
2021/09/15 13:20:31;;;;;;;;;;;23.80;76.90;;;;;;5092695;28;19907;-78
2021/09/15 13:22:57;;;;;;;;;;;23.60;76.80;;;;;;5092947;28;19968;-78
2021/09/15 13:25:23;;;;;;;;;;;23.50;77.00;;;;;;5092693;28;19907;-80
2021/09/15 13:27:49;;;;;;;;;;;23.50;77.30;;;;;;5092371;28;19950;-76
2021/09/15 13:30:15;;;;;;;;;;;23.50;77.20;;;;;;5091547;28;19954;-78
2021/09/15 13:32:40;;;;;;;;;;;23.50;77.60;;;;;;5092157;28;19907;-78
2021/09/15 13:35:06;;;;;;;;;;;23.60;77.20;;;;;;5111890;28;19904;-76
2021/09/15 13:37:32;;;;;;;;;;;23.70;76.70;;;;;;5111178;28;19967;-77
2021/09/15 13:39:58;;;;;;;;;;;23.70;76.60;;;;;;5075978;28;19911;-76
2021/09/15 13:42:24;;;;;;;;;;;23.70;76.40;;;;;;5110821;28;19950;-77
2021/09/15 13:44:50;;;;;;;;;;;23.60;76.10;;;;;;5109629;28;19904;-76
2021/09/15 13:47:16;;;;;;;;;;;23.40;75.80;;;;;;5109825;28;19965;-76
2021/09/15 13:49:41;;;;;;;;;;;23.20;75.70;;;;;;5092359;28;20044;-76
2021/09/15 13:52:10;;;;;;;;;;;23.20;76.30;;;;;;5109922;28;19911;-77
2021/09/15 13:54:37;;;;;;;;;;;23.20;76.40;;;;;;5091684;28;19919;-79
2021/09/15 13:57:03;;;;;;;;;;;23.20;76.30;;;;;;5109697;28;19977;-75
2021/09/15 13:59:28;;;;;;;;;;;23.20;76.20;;;;;;5110021;28;19942;-77
2021/09/15 14:01:54;;;;;;;;;;;23.20;76.30;;;;;;5074731;28;19914;-79
2021/09/15 14:04:20;;;;;;;;;;;23.20;76.20;;;;;;5110088;28;19907;-77
2021/09/15 14:06:45;;;;;;;;;;;23.10;76.00;;;;;;5110060;28;19912;-76
2021/09/15 14:09:11;;;;;;;;;;;23.10;76.10;;;;;;5109796;28;19915;-78
2021/09/15 14:11:36;;;;;;;;;;;23.10;76.20;;;;;;5091878;28;19914;-76
2021/09/15 14:14:03;;;;;;;;;;;23.20;76.40;;;;;;5109865;28;20337;-77
2021/09/15 14:16:29;;;;;;;;;;;23.20;76.00;;;;;;5110648;28;19960;-79
2021/09/15 14:18:55;;;;;;;;;;;23.20;75.80;;;;;;5110579;28;20014;-77
2021/09/15 14:21:20;;;;;;;;;;;23.20;75.80;;;;;;5110009;28;19935;-78
2021/09/15 14:23:46;;;;;;;;;;;23.00;75.70;;;;;;5091503;28;19908;-75
2021/09/15 14:26:11;;;;;;;;;;;22.80;75.70;;;;;;5109494;28;20278;-80